Etusivu
METAR-TAF:

METAR-TAF

Lentoasemat :

Göteborg City Airport

Göteborg, Ruotsi

Leveyspiiri: 57-47N, Pituuspiiri: 011-53E, korkeus merenpinnasta: 20 m

Tämänhetkinen sää

Tämä raportti tehtiin 28 minuuttia sitten, kello 12.50 UTC
Tuuli 13 kn lounaasta
Lämpötila 15°C
Kosteus 67%
Ilmanpaine 1012 hPa
Näkyvyys 10 km tai enemmän
Hajonneita pilviä 4400 ft:n korkeudessa
Pilvistä 7000 ft:n korkeudessa

METAR: ESGP 181250Z 23013KT 9999 BKN044 OVC070 15/09 Q1012

Aika: 15:18 (13:18 UTC)

Sääennuste

Tämä raportti tehtiin 1 tunti ja 48 minuuttia sitten, kello 11.30 UTC
Ennuste voimassa 18. päivästä klo 12 UTC - 18. päivään klo 21 UTC
Tuuli 15 kn lounaasta
Näkyvyys 10 km tai enemmän
Hajonneita pilviä 2000 ft:n korkeudessa
Todennäköisyys 40%
18. päivästä klo 12 UTC - 18. päivään klo 17 UTC
Hajanaisia pilviä 2000 ft:n korkeudessa, Kasvava cumulus-pilvi.

TAF: ESGP 181130Z 1812/1821 22015KT 9999 BKN020 PROB40 1812/1817 SCT020TCU

Säähavainnot ja -ennusteet yli 4000 lentoasemalta (METAR- ja TAF-raportit).

Käytössä olevat sääasemat on merkitty karttaan keltaisilla ja punaisilla pisteillä.

Aseta hiiri pisteen päälle nähdäksesi sääaseman nimen.

Klikkaa sitten nähdäksesi säähavainnot ja -ennusteet.

Kartan vaihtaminen: klikkaa mustalla rastilla varustettuja vihreitä pisteitä, niin voit zoomata sisään; viivalla varustettua vihreää pistettä, niin voit zoomata ulos tai vihreitä nuolia, niin pääset viereisille kartoille.


METAR-TAF: